Аэропорт: Уральск. Уральск

ICAO: UARR

METAR:
2018/11/21 18:30
UARR 211830Z 30004MPS 9999 OVC036 M03/M04 Q1008 R22/590240 NOSIG RMK QFE753/1004
METAR:
2015/07/31 21:21
TAF 
      AMD TAF 
      AMD UARR 312316Z 3121/0109 VRB02MPS CAVOK 
      TEMPO 0106/0109 18005MPS